YPLG weather

Pilliga Airport
New South Wales, Australia

Public forecast

Using degrees Celsius for public forecast. Weather courtesy of forecast.io.

Closest aviation weather report (METAR) to Pilliga Airport

Closest report is Coonamble Airport, 45.3 nm (84.0 km) SW. Retrieved 2020/07/04 18:00 UTC (14 minutes ago):

YCNM 041800Z AUTO 22005KT //// // ////// 06/05 Q1025

Closest aviation forecast (TAF) to Pilliga Airport

Closest forecast is Tamworth Airport, 110.1 nm (204.0 km) ESE. Retrieved 2020/07/04 18:36 UTC (0 seconds ago):

TAF YSTW 041641Z 0418/0512 VRB03KT 9999 BKN020 FM050000 VRB03KT 9999 SCT030